Time;durP1;ratioP1;P1;durP2;ratioP2;P2;SDS_P1;SDS_P2;PMS_P1;PMS_P2;Temp;Humidity;BMP_temperature;BMP_pressure;BME280_temperature;BME280_humidity;BME280_pressure;Samples;Min_cycle;Max_cycle;Signal;HPM_P1;HPM_P2
2022/03/26 00:02:19;;;;;;;36.10;21.75;;;;;;;7.48;63.53;103031.78;5052054;28;20047;-55
2022/03/26 00:04:45;;;;;;;36.00;22.08;;;;;;;7.44;63.65;103041.63;5051983;28;20040;-53
2022/03/26 00:07:10;;;;;;;37.17;21.95;;;;;;;7.41;63.76;103034.66;5050982;28;20166;-52
2022/03/26 00:09:36;;;;;;;37.78;22.00;;;;;;;7.41;64.02;103036.56;5052475;28;20465;-54
2022/03/26 00:12:02;;;;;;;35.42;20.75;;;;;;;7.35;63.59;103032.81;5051458;28;20045;-54
2022/03/26 00:14:27;;;;;;;37.45;22.00;;;;;;;7.26;64.15;103034.19;5050348;28;20396;-53
2022/03/26 00:16:53;;;;;;;37.58;21.30;;;;;;;7.22;64.44;103031.06;5051931;28;20397;-52
2022/03/26 00:19:18;;;;;;;38.85;22.90;;;;;;;7.18;64.93;103030.69;5050463;28;20366;-52
2022/03/26 00:21:45;;;;;;;35.33;20.80;;;;;;;7.20;64.66;103029.59;5051446;28;20064;-52
2022/03/26 00:24:10;;;;;;;35.88;22.67;;;;;;;7.18;64.73;103033.44;5055338;28;20064;-53
2022/03/26 00:26:35;;;;;;;35.88;22.05;;;;;;;7.10;65.28;103027.38;5055383;28;20064;-49
2022/03/26 00:29:01;;;;;;;38.58;21.77;;;;;;;7.05;65.23;103024.47;5056019;28;20033;-49
2022/03/26 00:31:26;;;;;;;35.33;22.90;;;;;;;7.02;65.50;103029.38;5055146;28;20443;-49
2022/03/26 00:33:53;;;;;;;35.13;21.85;;;;;;;6.96;65.52;103030.28;5055475;28;20025;-50
2022/03/26 00:36:19;;;;;;;39.97;22.60;;;;;;;6.93;66.01;103036.25;5055739;28;20064;-53
2022/03/26 00:38:45;;;;;;;39.55;22.40;;;;;;;6.87;66.35;103034.41;5055680;28;20021;-50
2022/03/26 00:41:10;;;;;;;35.97;21.90;;;;;;;6.81;66.29;103041.66;5055395;28;20071;-49
2022/03/26 00:43:35;;;;;;;36.50;22.25;;;;;;;6.76;66.47;103035.16;5055348;28;20032;-53
2022/03/26 00:46:01;;;;;;;39.22;22.75;;;;;;;6.73;66.58;103036.44;5055495;28;20435;-53
2022/03/26 00:48:26;;;;;;;36.33;21.95;;;;;;;6.67;67.06;103024.44;5054995;28;20415;-53
2022/03/26 00:50:51;;;;;;;38.05;21.50;;;;;;;6.64;67.11;103035.06;5055554;28;20036;-53
2022/03/26 00:53:17;;;;;;;34.85;21.92;;;;;;;6.60;67.13;103031.91;5055564;28;20032;-53
2022/03/26 00:55:42;;;;;;;39.78;22.77;;;;;;;6.52;66.99;103027.53;5054412;28;20460;-50
2022/03/26 00:58:07;;;;;;;35.97;22.63;;;;;;;6.53;67.80;103025.63;5054884;28;20421;-52
2022/03/26 01:00:33;;;;;;;36.08;21.90;;;;;;;6.49;67.75;103025.22;5054759;28;20044;-54
2022/03/26 01:02:58;;;;;;;37.67;23.45;;;;;;;6.45;67.09;103017.66;5054765;28;20020;-51
2022/03/26 01:05:23;;;;;;;36.45;21.83;;;;;;;6.46;67.58;103022.94;5054717;28;20389;-51
2022/03/26 01:07:50;;;;;;;39.05;21.42;;;;;;;6.43;68.06;103025.28;5054474;28;20036;-51
2022/03/26 01:10:15;;;;;;;35.15;21.58;;;;;;;6.36;68.17;103020.69;5054860;28;20079;-53
2022/03/26 01:12:40;;;;;;;35.75;21.65;;;;;;;6.34;68.00;103021.97;5054850;28;20085;-54
2022/03/26 01:15:06;;;;;;;35.63;21.77;;;;;;;6.33;68.26;103026.63;5055336;28;20370;-56
2022/03/26 01:17:32;;;;;;;35.75;21.90;;;;;;;6.28;68.14;103020.97;5054912;28;20388;-54
2022/03/26 01:19:59;;;;;;;33.92;21.20;;;;;;;6.26;68.63;103019.50;5054348;28;20100;-55
2022/03/26 01:22:25;;;;;;;40.95;23.08;;;;;;;6.19;68.99;103023.13;5054396;28;20029;-54
2022/03/26 01:24:50;;;;;;;36.85;21.33;;;;;;;6.18;69.49;103024.22;5054200;28;20040;-54
2022/03/26 01:27:15;;;;;;;37.63;22.60;;;;;;;6.14;68.81;103022.16;5054284;28;20044;-51
2022/03/26 01:29:41;;;;;;;39.90;23.30;;;;;;;6.12;69.74;103024.25;5054541;28;20047;-53
2022/03/26 01:32:07;;;;;;;40.17;22.48;;;;;;;6.08;69.25;103029.38;5054545;28;20476;-53
2022/03/26 01:34:33;;;;;;;36.50;22.33;;;;;;;6.07;69.30;103031.25;5053032;28;20033;-51
2022/03/26 01:36:59;;;;;;;35.47;21.85;;;;;;;6.02;69.19;103027.47;5054109;28;20079;-53
2022/03/26 01:39:24;;;;;;;38.90;22.90;;;;;;;5.98;70.03;103027.06;5054104;28;20033;-50
2022/03/26 01:41:50;;;;;;;35.22;20.77;;;;;;;5.93;70.56;103024.97;5054388;28;20094;-52
2022/03/26 01:44:16;;;;;;;37.45;22.13;;;;;;;5.91;70.80;103029.00;5054422;28;20045;-54
2022/03/26 01:46:53;;;;;;;36.63;22.20;;;;;;;5.88;70.51;103027.56;5054732;28;20163;-54
2022/03/26 01:49:19;;;;;;;39.40;22.48;;;;;;;5.82;70.44;103028.41;5054367;28;20029;-52
2022/03/26 01:51:44;;;;;;;35.53;22.15;;;;;;;5.80;70.72;103033.31;5054127;28;20538;-53
2022/03/26 01:54:11;;;;;;;36.83;22.00;;;;;;;5.78;70.79;103030.75;5054821;28;20017;-53
2022/03/26 01:56:38;;;;;;;37.97;22.27;;;;;;;5.72;71.22;103028.91;5053642;28;20032;-53
2022/03/26 01:59:05;;;;;;;38.53;21.65;;;;;;;5.71;71.36;103024.47;5053602;28;20384;-53
2022/03/26 02:01:33;;;;;;;36.08;21.70;;;;;;;5.72;70.76;103030.78;5054416;28;20024;-53
2022/03/26 02:03:59;;;;;;;35.78;21.02;;;;;;;5.71;71.27;103023.66;5054224;28;20461;-53
2022/03/26 02:06:29;;;;;;;37.78;21.90;;;;;;;5.68;71.57;103024.91;5053671;28;20074;-53
2022/03/26 02:08:54;;;;;;;36.30;22.63;;;;;;;5.64;71.23;103029.16;5052852;28;20051;-51
2022/03/26 02:11:20;;;;;;;37.80;22.10;;;;;;;5.61;71.63;103026.84;5052291;28;20493;-52
2022/03/26 02:13:53;;;;;;;38.05;22.13;;;;;;;5.58;71.39;103025.38;5053691;28;20507;-53
2022/03/26 02:16:20;;;;;;;34.97;21.85;;;;;;;5.57;72.00;103029.19;5054167;28;20472;-53
2022/03/26 02:18:45;;;;;;;37.80;21.67;;;;;;;5.57;71.37;103028.38;5052051;28;20358;-52
2022/03/26 02:21:11;;;;;;;36.08;22.48;;;;;;;5.57;71.76;103025.63;5053368;28;20039;-53
2022/03/26 02:23:36;;;;;;;41.60;22.10;;;;;;;5.53;71.53;103032.59;5053407;28;20021;-52
2022/03/26 02:26:01;;;;;;;36.45;21.42;;;;;;;5.48;70.95;103022.25;5053881;28;20025;-53
2022/03/26 02:28:27;;;;;;;34.38;21.13;;;;;;;5.41;71.76;103026.94;5053280;28;20086;-54
2022/03/26 02:30:52;;;;;;;33.60;21.35;;;;;;;5.36;71.90;103026.75;5053821;28;20029;-54
2022/03/26 02:33:18;;;;;;;36.63;22.38;;;;;;;5.36;71.87;103027.59;5053637;28;20027;-53
2022/03/26 02:35:43;;;;;;;36.65;21.52;;;;;;;5.30;71.51;103025.69;5052125;28;20420;-53
2022/03/26 02:38:10;;;;;;;36.30;21.60;;;;;;;5.30;71.86;103025.69;5053664;28;20067;-53
2022/03/26 02:40:35;;;;;;;36.05;21.67;;;;;;;5.29;72.05;103026.78;5053178;28;20028;-53
2022/03/26 02:43:00;;;;;;;36.40;21.88;;;;;;;5.29;71.76;103024.88;5053193;28;20122;-54
2022/03/26 02:45:28;;;;;;;37.22;21.63;;;;;;;5.26;71.65;103025.31;5053297;28;20059;-54
2022/03/26 02:47:53;;;;;;;34.90;20.63;;;;;;;5.24;71.99;103021.09;5052694;28;20025;-53
2022/03/26 02:50:18;;;;;;;36.92;21.83;;;;;;;5.20;72.52;103028.91;5053295;28;20539;-55
2022/03/26 02:52:48;;;;;;;38.42;21.35;;;;;;;5.17;73.50;103023.03;5053276;28;20027;-54
2022/03/26 02:55:13;;;;;;;38.30;21.75;;;;;;;5.15;72.93;103025.97;5053402;28;20516;-54
2022/03/26 02:57:39;;;;;;;36.60;20.83;;;;;;;5.11;73.30;103021.97;5052358;28;20029;-54
2022/03/26 03:00:05;;;;;;;36.33;20.70;;;;;;;5.07;73.91;103021.56;5052896;28;20025;-54
2022/03/26 03:02:30;;;;;;;37.17;21.73;;;;;;;5.05;73.98;103020.13;5053191;28;20504;-54
2022/03/26 03:04:55;;;;;;;36.00;22.15;;;;;;;5.04;74.57;103015.69;5052652;28;20029;-54
2022/03/26 03:07:21;;;;;;;37.67;22.23;;;;;;;5.04;73.59;103021.16;5052697;28;20020;-51
2022/03/26 03:09:46;;;;;;;34.78;21.13;;;;;;;4.98;73.47;103018.22;5052564;28;20029;-53
2022/03/26 03:12:11;;;;;;;39.22;22.13;;;;;;;4.95;73.95;103006.81;5052111;28;20179;-52
2022/03/26 03:14:37;;;;;;;36.33;21.23;;;;;;;4.90;73.77;103018.44;5052333;28;20029;-53
2022/03/26 03:17:03;;;;;;;37.88;21.23;;;;;;;4.86;74.68;103019.94;5052162;28;20056;-51
2022/03/26 03:19:28;;;;;;;36.95;21.70;;;;;;;4.83;74.27;103025.84;5052024;28;20052;-52
2022/03/26 03:21:53;;;;;;;34.80;21.58;;;;;;;4.79;74.48;103025.44;5051856;28;20025;-54
2022/03/26 03:24:19;;;;;;;38.30;21.67;;;;;;;4.76;74.72;103025.84;5052873;28;20028;-52
2022/03/26 03:26:44;;;;;;;38.80;20.77;;;;;;;4.76;75.72;103027.75;5052947;28;20059;-53
2022/03/26 03:29:09;;;;;;;36.03;20.92;;;;;;;4.73;75.16;103030.91;5053735;28;20112;-53
2022/03/26 03:31:37;;;;;;;38.67;22.30;;;;;;;4.72;75.62;103029.22;5053365;28;20021;-53
2022/03/26 03:34:02;;;;;;;37.92;21.00;;;;;;;4.71;74.68;103031.16;5053462;28;20053;-52
2022/03/26 03:36:27;;;;;;;34.85;21.15;;;;;;;4.71;75.39;103030.28;5052875;28;20491;-53
2022/03/26 03:38:52;;;;;;;38.25;21.80;;;;;;;4.64;75.27;103031.16;5053141;28;20081;-53
2022/03/26 03:41:18;;;;;;;38.20;21.05;;;;;;;4.64;75.78;103033.03;5053446;28;20483;-53
2022/03/26 03:43:43;;;;;;;36.50;22.63;;;;;;;4.60;75.65;103032.59;5053202;28;20021;-55
2022/03/26 03:46:09;;;;;;;39.78;21.40;;;;;;;4.57;75.72;103033.06;5053067;28;20064;-52
2022/03/26 03:48:34;;;;;;;41.25;22.25;;;;;;;4.55;76.24;103032.41;5052802;28;20032;-53
2022/03/26 03:50:59;;;;;;;36.47;22.00;;;;;;;4.51;76.25;103034.75;5052744;28;20112;-53
2022/03/26 03:53:24;;;;;;;35.67;20.90;;;;;;;4.46;76.37;103037.25;5053145;28;20028;-53
2022/03/26 03:55:50;;;;;;;37.47;22.60;;;;;;;4.44;76.16;103033.03;5053143;28;20021;-54
2022/03/26 03:58:15;;;;;;;36.03;21.70;;;;;;;4.47;76.44;103036.19;5054732;28;20041;-53
2022/03/26 04:00:40;;;;;;;39.55;21.38;;;;;;;4.45;76.17;103034.72;5057066;28;20469;-54
2022/03/26 04:03:05;;;;;;;37.22;21.38;;;;;;;4.46;76.60;103034.50;5057162;28;20494;-49
2022/03/26 04:05:31;;;;;;;37.70;20.90;;;;;;;4.44;75.80;103033.88;5057019;28;20082;-53
2022/03/26 04:07:56;;;;;;;35.13;21.25;;;;;;;4.46;76.08;103029.03;5057071;28;20025;-51
2022/03/26 04:10:21;;;;;;;33.78;20.90;;;;;;;4.46;76.14;103033.69;5057119;28;20563;-52
2022/03/26 04:12:47;;;;;;;36.85;21.25;;;;;;;4.42;74.82;103022.31;5056913;28;20102;-52
2022/03/26 04:15:14;;;;;;;38.55;20.65;;;;;;;4.35;75.70;103032.41;5056956;28;20036;-54
2022/03/26 04:17:39;;;;;;;38.92;21.77;;;;;;;4.31;75.20;103040.19;5057016;28;20021;-52
2022/03/26 04:20:08;;;;;;;39.72;22.02;;;;;;;4.27;76.17;103041.69;5056902;28;20039;-51
2022/03/26 04:22:36;;;;;;;39.42;21.20;;;;;;;4.24;75.92;103038.53;5056870;28;20029;-50
2022/03/26 04:25:03;;;;;;;36.10;21.40;;;;;;;4.18;76.22;103035.56;5056364;28;20036;-50
2022/03/26 04:27:29;;;;;;;35.00;21.58;;;;;;;4.18;76.18;103042.94;5056577;28;20045;-50
2022/03/26 04:29:54;;;;;;;35.88;21.25;;;;;;;4.16;76.34;103042.31;5056639;28;20017;-54
2022/03/26 04:32:19;;;;;;;37.58;20.48;;;;;;;4.10;75.38;103038.50;5056015;28;20051;-52
2022/03/26 04:34:44;;;;;;;37.05;21.55;;;;;;;4.10;76.30;103034.94;5056543;28;20449;-54
2022/03/26 04:37:10;;;;;;;35.58;20.05;;;;;;;4.05;76.36;103036.38;5056678;28;20025;-54
2022/03/26 04:39:35;;;;;;;39.97;22.48;;;;;;;4.03;76.88;103033.00;5056767;28;20052;-54
2022/03/26 04:42:01;;;;;;;38.92;22.05;;;;;;;4.00;76.57;103040.78;5056037;28;20040;-50
2022/03/26 04:44:27;;;;;;;37.47;22.02;;;;;;;3.97;77.29;103033.00;5056092;28;20032;-51
2022/03/26 04:46:52;;;;;;;39.08;23.25;;;;;;;3.97;77.64;103033.84;5056221;28;20136;-53
2022/03/26 04:49:17;;;;;;;36.50;22.63;;;;;;;3.92;77.42;103032.78;5056175;28;20357;-53
2022/03/26 04:51:43;;;;;;;37.47;22.23;;;;;;;3.89;77.43;103034.03;5056375;28;20121;-54
2022/03/26 04:54:08;;;;;;;38.15;22.55;;;;;;;3.86;78.57;103031.72;5056120;28;20061;-53
2022/03/26 04:56:33;;;;;;;37.47;22.92;;;;;;;3.86;78.64;103037.19;5055905;28;20056;-53
2022/03/26 04:58:59;;;;;;;40.35;23.73;;;;;;;3.86;78.74;103039.91;5056083;28;20029;-55
2022/03/26 05:01:24;;;;;;;41.90;22.48;;;;;;;3.87;78.52;103034.22;5056382;28;20040;-54
2022/03/26 05:03:50;;;;;;;39.92;23.60;;;;;;;3.88;78.44;103038.66;5055913;28;20100;-53
2022/03/26 05:06:15;;;;;;;41.78;23.05;;;;;;;3.85;78.55;103038.22;5071348;28;20071;-54
2022/03/26 05:08:40;;;;;;;38.45;23.23;;;;;;;3.83;78.85;103046.66;5055275;28;20033;-56
2022/03/26 05:11:06;;;;;;;39.15;22.65;;;;;;;3.81;78.64;103048.75;5054455;28;20139;-54
2022/03/26 05:13:31;;;;;;;39.75;23.23;;;;;;;3.81;78.83;103047.94;5055595;28;20476;-54
2022/03/26 05:15:57;;;;;;;38.33;22.90;;;;;;;3.80;79.80;103046.22;5055545;28;20065;-53
2022/03/26 05:18:22;;;;;;;38.63;23.00;;;;;;;3.80;78.78;103043.50;5055692;28;20021;-53
2022/03/26 05:20:47;;;;;;;37.42;22.38;;;;;;;3.79;78.56;103045.38;5055021;28;20025;-56
2022/03/26 05:23:12;;;;;;;38.22;22.98;;;;;;;3.80;78.54;103043.50;5054825;28;20498;-54
2022/03/26 05:25:38;;;;;;;40.55;23.35;;;;;;;3.81;79.27;103046.03;5055641;28;20028;-53
2022/03/26 05:28:03;;;;;;;39.03;22.90;;;;;;;3.81;78.29;103053.41;5054836;28;20049;-54
2022/03/26 05:30:28;;;;;;;36.97;23.45;;;;;;;3.82;78.68;103053.19;5055034;28;20050;-53
2022/03/26 05:32:55;;;;;;;40.30;24.17;;;;;;;3.84;79.19;103055.72;5055212;28;20032;-52
2022/03/26 05:35:21;;;;;;;39.60;23.67;;;;;;;3.84;79.05;103059.31;5055395;28;20032;-54
2022/03/26 05:37:49;;;;;;;40.42;24.73;;;;;;;3.88;78.81;103065.22;5055355;28;20496;-51
2022/03/26 05:40:16;;;;;;;44.58;26.05;;;;;;;3.90;78.82;103065.84;5055521;28;20040;-51
2022/03/26 05:42:43;;;;;;;40.72;24.10;;;;;;;3.93;78.37;103068.16;5055319;28;20086;-52
2022/03/26 05:45:09;;;;;;;39.53;24.25;;;;;;;3.97;78.42;103071.34;5055030;28;20040;-53
2022/03/26 05:47:35;;;;;;;40.28;23.77;;;;;;;4.00;77.93;103065.44;5055019;28;20112;-54
2022/03/26 05:50:02;;;;;;;37.95;22.75;;;;;;;4.01;77.85;103072.63;5054946;28;20079;-53
2022/03/26 05:52:27;;;;;;;38.25;23.55;;;;;;;4.00;78.03;103066.31;5054439;28;20029;-50
2022/03/26 05:54:52;;;;;;;38.65;22.92;;;;;;;4.03;77.63;103067.78;5054855;28;20491;-53
2022/03/26 05:57:21;;;;;;;38.28;22.38;;;;;;;4.06;77.58;103081.06;5054836;28;20057;-53
2022/03/26 05:59:46;;;;;;;42.15;22.20;;;;;;;4.06;78.13;103067.38;5054726;28;20051;-53
2022/03/26 06:02:13;;;;;;;38.42;22.85;;;;;;;4.09;77.41;103080.63;5054567;28;20465;-52
2022/03/26 06:04:42;;;;;;;39.97;24.15;;;;;;;4.13;77.33;103076.44;5054999;28;20484;-54
2022/03/26 06:07:08;;;;;;;37.90;22.52;;;;;;;4.17;77.58;103077.69;5054661;28;20082;-51
2022/03/26 06:09:35;;;;;;;37.95;23.17;;;;;;;4.20;76.79;103085.50;5054270;28;20419;-51
2022/03/26 06:12:00;;;;;;;40.90;23.88;;;;;;;4.23;77.22;103084.25;5054339;28;20128;-50
2022/03/26 06:14:26;;;;;;;40.08;23.23;;;;;;;4.26;77.59;103080.25;5054328;28;20094;-52
2022/03/26 06:16:51;;;;;;;38.78;22.90;;;;;;;4.30;77.06;103085.09;5054287;28;20033;-52
2022/03/26 06:19:16;;;;;;;39.20;23.05;;;;;;;4.37;77.20;103090.59;5054364;28;20116;-50
2022/03/26 06:21:42;;;;;;;40.15;23.05;;;;;;;4.43;76.68;103086.16;5054113;28;20372;-54
2022/03/26 06:24:07;;;;;;;41.22;23.23;;;;;;;4.50;76.71;103087.00;5054311;28;20029;-54
2022/03/26 06:26:34;;;;;;;41.25;24.17;;;;;;;4.57;76.46;103100.72;5054031;28;20021;-51
2022/03/26 06:29:00;;;;;;;41.30;23.70;;;;;;;4.65;75.84;103092.28;5054453;28;20033;-51
2022/03/26 06:31:25;;;;;;;42.20;25.15;;;;;;;4.73;76.27;103104.97;5053630;28;20048;-50
2022/03/26 06:33:50;;;;;;;43.20;23.90;;;;;;;4.82;75.99;103109.19;5052788;28;20032;-53
2022/03/26 06:36:18;;;;;;;42.40;24.48;;;;;;;4.89;75.30;103110.00;5054583;28;20112;-51
2022/03/26 06:38:44;;;;;;;42.63;24.25;;;;;;;4.95;75.30;103106.44;5053646;28;20025;-54
2022/03/26 06:41:10;;;;;;;43.50;25.25;;;;;;;5.05;75.31;103107.91;5054187;28;20032;-51
2022/03/26 06:43:39;;;;;;;41.55;23.67;;;;;;;5.10;74.82;103103.44;5053915;28;20021;-54
2022/03/26 06:46:04;;;;;;;40.35;24.23;;;;;;;5.20;74.90;103113.13;5053983;28;20029;-54
2022/03/26 06:48:30;;;;;;;43.15;24.60;;;;;;;5.26;74.88;103102.16;5052289;28;20124;-53
2022/03/26 06:50:56;;;;;;;42.60;24.92;;;;;;;5.35;74.75;103104.66;5053675;28;20016;-53
2022/03/26 06:53:21;;;;;;;42.40;25.05;;;;;;;5.42;74.10;103109.06;5053317;28;20028;-54
2022/03/26 06:55:46;;;;;;;41.53;25.35;;;;;;;5.51;74.04;103104.22;5053924;28;20029;-51
2022/03/26 06:58:12;;;;;;;45.60;24.85;;;;;;;5.59;73.58;103108.59;5053345;28;20086;-51
2022/03/26 07:00:37;;;;;;;44.08;25.63;;;;;;;5.67;74.03;103111.09;5053448;28;20024;-49
2022/03/26 07:03:02;;;;;;;44.35;24.42;;;;;;;5.74;73.07;103111.06;5053341;28;20112;-54
2022/03/26 07:05:27;;;;;;;46.80;25.10;;;;;;;5.82;72.94;103112.75;5053603;28;20021;-51
2022/03/26 07:07:53;;;;;;;43.80;26.05;;;;;;;5.92;72.49;103121.38;5053477;28;20400;-52
2022/03/26 07:10:18;;;;;;;42.63;25.45;;;;;;;5.98;72.72;103117.72;5052165;28;20029;-50
2022/03/26 07:12:43;;;;;;;40.03;25.00;;;;;;;6.08;72.74;103112.63;5053424;28;20049;-54
2022/03/26 07:15:09;;;;;;;46.45;25.17;;;;;;;6.18;72.16;103123.16;5052729;28;20017;-54
2022/03/26 07:17:37;;;;;;;44.35;24.77;;;;;;;6.28;71.55;103124.59;5053233;28;20366;-54
2022/03/26 07:20:03;;;;;;;46.08;25.45;;;;;;;6.38;71.63;103122.16;5051697;28;20664;-51
2022/03/26 07:22:29;;;;;;;43.03;24.83;;;;;;;6.47;71.39;103123.59;5050458;28;20107;-55
2022/03/26 07:24:54;;;;;;;41.65;25.40;;;;;;;6.57;71.09;103125.88;5052850;28;20111;-55
2022/03/26 07:27:19;;;;;;;43.83;25.08;;;;;;;6.70;70.79;103116.66;5042831;28;20053;-55
2022/03/26 07:29:48;;;;;;;42.78;25.00;;;;;;;6.82;70.36;103125.88;5031649;28;20033;-50
2022/03/26 07:32:14;;;;;;;39.17;23.77;;;;;;;6.95;70.47;103122.16;5032542;28;20068;-54
2022/03/26 07:34:39;;;;;;;42.30;24.65;;;;;;;7.05;70.32;103129.91;5032758;28;20055;-53
2022/03/26 07:37:04;;;;;;;42.40;24.83;;;;;;;7.16;70.42;103126.41;5042341;28;20044;-50
2022/03/26 07:39:30;;;;;;;43.60;24.33;;;;;;;7.29;69.76;103130.09;5052871;28;20528;-51
2022/03/26 07:41:55;;;;;;;43.90;24.02;;;;;;;7.41;68.75;103127.44;5052718;28;20057;-54
2022/03/26 07:44:20;;;;;;;42.53;24.55;;;;;;;7.50;67.41;103123.31;5052597;28;20029;-51
2022/03/26 07:46:45;;;;;;;42.13;23.50;;;;;;;7.62;67.08;103117.88;5046979;28;20037;-53
2022/03/26 07:49:11;;;;;;;39.72;24.85;;;;;;;7.75;66.47;103125.13;5043408;28;20116;-49
2022/03/26 07:51:36;;;;;;;39.95;22.73;;;;;;;7.85;66.81;103124.59;5041066;28;20030;-53
2022/03/26 07:54:01;;;;;;;41.88;23.80;;;;;;;7.94;65.73;103125.94;5043579;28;20071;-51
2022/03/26 07:56:27;;;;;;;41.20;22.40;;;;;;;8.04;65.63;103125.38;5036436;28;20033;-51
2022/03/26 07:58:52;;;;;;;43.28;23.70;;;;;;;8.15;64.92;103132.88;5034303;28;20064;-53
2022/03/26 08:01:17;;;;;;;40.63;24.75;;;;;;;8.25;64.66;103133.16;5040578;28;20040;-53
2022/03/26 08:03:43;;;;;;;42.13;24.60;;;;;;;8.35;64.53;103124.34;5042932;28;20056;-50
2022/03/26 08:06:08;;;;;;;41.42;24.08;;;;;;;8.44;65.05;103130.34;5042553;28;20021;-51
2022/03/26 08:08:33;;;;;;;41.80;23.67;;;;;;;8.55;64.02;103126.81;5042355;28;20037;-54
2022/03/26 08:11:00;;;;;;;37.33;23.42;;;;;;;8.65;63.28;103131.72;5040925;28;20053;-52
2022/03/26 08:13:25;;;;;;;38.60;22.63;;;;;;;8.80;63.21;103133.22;5043528;28;20029;-51
2022/03/26 08:15:50;;;;;;;39.33;24.27;;;;;;;8.90;63.40;103139.81;5052430;28;20029;-50
2022/03/26 08:18:16;;;;;;;38.95;23.17;;;;;;;9.01;62.08;103134.53;5047745;28;20032;-52
2022/03/26 08:20:43;;;;;;;43.05;23.75;;;;;;;9.12;62.53;103141.13;5030329;28;20033;-51
2022/03/26 08:23:08;;;;;;;37.05;22.95;;;;;;;9.24;61.94;103150.28;5030181;28;20374;-52
2022/03/26 08:28:18;;;;;;;44.38;25.65;;;;;;;9.55;60.97;103150.97;5040155;28;20048;-50
2022/03/26 08:30:43;;;;;;;41.00;22.00;;;;;;;9.71;59.94;103151.31;5049907;28;20041;-52
2022/03/26 08:33:08;;;;;;;37.58;22.05;;;;;;;9.81;59.28;103159.81;5049959;28;20025;-50
2022/03/26 08:35:35;;;;;;;36.88;21.10;;;;;;;9.86;59.01;103148.03;5049845;28;20037;-52
2022/03/26 08:38:02;;;;;;;40.17;20.58;;;;;;;9.96;58.87;103157.38;5047662;28;20132;-51
2022/03/26 08:40:27;;;;;;;35.65;21.08;;;;;;;10.05;58.43;103152.28;5049933;28;20032;-49
2022/03/26 08:42:52;;;;;;;37.05;20.67;;;;;;;10.18;58.64;103156.69;5050166;28;20380;-52
2022/03/26 08:45:19;;;;;;;38.45;22.50;;;;;;;10.32;58.13;103161.94;5053076;28;20533;-49
2022/03/26 08:47:44;;;;;;;39.50;22.98;;;;;;;10.44;57.75;103155.28;5053439;28;20044;-48
2022/03/26 08:50:10;;;;;;;36.13;23.05;;;;;;;10.52;57.72;103158.72;5052562;28;20025;-52
2022/03/26 08:52:37;;;;;;;40.45;22.30;;;;;;;10.64;57.45;103159.50;5053329;28;20056;-53
2022/03/26 08:55:02;;;;;;;39.88;22.27;;;;;;;10.71;57.07;103160.19;5053535;28;20024;-54
2022/03/26 08:57:27;;;;;;;37.97;23.00;;;;;;;10.87;56.62;103163.19;5053123;28;20033;-50
2022/03/26 08:59:53;;;;;;;39.08;22.45;;;;;;;10.99;56.15;103165.91;5051991;28;20124;-49
2022/03/26 09:02:18;;;;;;;38.33;23.00;;;;;;;11.09;55.14;103166.06;5053721;28;20433;-51
2022/03/26 09:04:44;;;;;;;38.75;23.70;;;;;;;11.18;54.83;103158.16;5052754;28;20040;-52
2022/03/26 09:07:09;;;;;;;37.05;21.73;;;;;;;11.31;55.11;103159.72;5052370;28;20031;-51
2022/03/26 09:09:34;;;;;;;36.85;22.58;;;;;;;11.45;54.81;103161.06;5052515;28;20133;-53
2022/03/26 09:12:00;;;;;;;41.88;24.27;;;;;;;11.59;54.19;103163.44;5051284;28;20053;-50
2022/03/26 09:14:25;;;;;;;36.47;21.70;;;;;;;11.72;54.35;103168.63;5052869;28;20180;-52
2022/03/26 09:16:51;;;;;;;38.97;22.98;;;;;;;11.74;53.19;103179.47;5052795;28;20036;-52
2022/03/26 09:19:16;;;;;;;38.88;22.85;;;;;;;11.77;53.37;103168.69;5052662;28;20033;-53
2022/03/26 09:21:42;;;;;;;40.50;22.67;;;;;;;11.85;53.41;103156.31;5052528;28;20075;-50
2022/03/26 09:24:07;;;;;;;37.90;21.92;;;;;;;11.92;53.20;103156.94;5052219;28;20033;-53
2022/03/26 09:26:32;;;;;;;37.17;22.60;;;;;;;12.08;53.82;103157.19;5052774;28;20048;-50
2022/03/26 09:28:58;;;;;;;37.83;22.23;;;;;;;12.19;53.50;103155.34;5052704;28;20094;-53
2022/03/26 09:31:23;;;;;;;37.65;23.05;;;;;;;12.30;53.80;103163.53;5052971;28;20022;-54
2022/03/26 09:33:49;;;;;;;38.10;23.65;;;;;;;12.43;52.64;103165.03;5052712;28;20025;-55
2022/03/26 09:36:15;;;;;;;35.55;22.55;;;;;;;12.58;52.38;103164.34;5051165;28;20496;-54
2022/03/26 09:38:40;;;;;;;38.38;23.63;;;;;;;12.74;51.77;103161.75;5052801;28;20025;-55
2022/03/26 09:41:07;;;;;;;37.95;22.73;;;;;;;12.78;51.93;103166.50;5052883;28;20445;-53
2022/03/26 09:43:32;;;;;;;34.88;22.90;;;;;;;12.87;52.29;103149.34;5052728;28;20032;-54
2022/03/26 09:45:58;;;;;;;37.05;23.13;;;;;;;13.01;51.67;103164.44;5052462;28;20104;-52
2022/03/26 09:48:23;;;;;;;35.58;22.80;;;;;;;13.11;50.58;103158.13;5052516;28;20021;-54
2022/03/26 09:50:52;;;;;;;35.60;22.80;;;;;;;13.18;51.14;103155.09;5052348;28;20461;-54
2022/03/26 09:53:18;;;;;;;36.45;22.13;;;;;;;13.25;50.64;103159.34;5052227;28;20025;-51
2022/03/26 09:55:44;;;;;;;33.38;21.70;;;;;;;13.33;49.47;103157.16;5051640;28;20032;-49
2022/03/26 09:58:10;;;;;;;36.40;20.63;;;;;;;13.43;48.59;103154.47;5052394;28;20629;-49
2022/03/26 10:00:35;;;;;;;32.13;20.35;;;;;;;13.50;48.95;103160.66;5051943;28;20033;-51
2022/03/26 10:03:00;;;;;;;31.60;19.63;;;;;;;13.56;46.89;103155.94;5052039;28;20465;-54
2022/03/26 10:05:34;;;;;;;31.48;19.05;;;;;;;13.67;47.37;103149.31;5051526;28;20025;-50
2022/03/26 10:08:19;;;;;;;33.55;19.67;;;;;;;13.77;48.44;103148.53;5052058;28;20029;-53
2022/03/26 10:10:45;;;;;;;34.22;19.83;;;;;;;13.97;46.95;103149.72;5051562;28;20099;-52
2022/03/26 10:13:12;;;;;;;32.88;20.17;;;;;;;14.05;45.68;103160.31;5051898;28;20427;-53
2022/03/26 10:16:01;;;;;;;32.70;18.70;;;;;;;14.10;45.42;103149.19;5052151;28;20035;-54
2022/03/26 10:18:31;;;;;;;32.63;18.35;;;;;;;14.23;45.86;103147.00;5052133;28;20436;-51
2022/03/26 10:20:58;;;;;;;30.90;17.85;;;;;;;14.31;45.22;103146.47;5051623;28;20148;-52
2022/03/26 10:23:28;;;;;;;31.70;16.48;;;;;;;14.41;45.61;103146.50;5051496;28;20032;-51
2022/03/26 10:26:08;;;;;;;31.65;18.58;;;;;;;14.42;44.37;103148.16;5051273;28;20047;-54
2022/03/26 10:28:34;;;;;;;33.85;19.75;;;;;;;14.48;44.57;103140.66;5051861;28;20154;-54
2022/03/26 10:34:10;;;;;;;32.33;18.70;;;;;;;14.55;44.39;103130.06;5051599;28;20055;-53
2022/03/26 10:36:44;;;;;;;35.65;19.05;;;;;;;14.63;44.54;103132.28;5049793;28;20033;-53
2022/03/26 10:39:27;;;;;;;32.05;19.55;;;;;;;14.72;45.14;103140.97;5051271;28;20029;-53
2022/03/26 10:41:53;;;;;;;29.40;17.98;;;;;;;14.79;44.96;103140.69;5051560;28;20390;-52
2022/03/26 10:44:24;;;;;;;32.83;19.98;;;;;;;14.78;46.04;103130.66;5051354;28;20075;-53
2022/03/26 10:46:55;;;;;;;35.42;20.20;;;;;;;14.86;46.58;103126.47;5050812;28;20033;-54
2022/03/26 10:49:26;;;;;;;31.88;19.27;;;;;;;15.02;46.59;103132.88;5051242;28;20425;-54
2022/03/26 10:51:53;;;;;;;36.17;21.05;;;;;;;15.12;46.32;103133.69;5051344;28;20108;-55
2022/03/26 10:54:18;;;;;;;31.45;19.67;;;;;;;15.15;46.12;103132.31;5051429;28;20029;-53
2022/03/26 10:56:44;;;;;;;34.47;19.90;;;;;;;15.18;46.30;103128.94;5050820;28;20075;-51
2022/03/26 10:59:10;;;;;;;36.20;21.10;;;;;;;15.22;45.66;103135.63;5050946;28;20431;-52
2022/03/26 11:01:35;;;;;;;33.38;19.70;;;;;;;15.20;45.87;103123.09;5050689;28;20044;-53
2022/03/26 11:04:02;;;;;;;34.13;21.20;;;;;;;15.23;45.73;103130.88;5050997;28;20067;-54
2022/03/26 11:06:27;;;;;;;34.95;20.83;;;;;;;15.22;45.98;103124.47;5051028;28;20063;-55
2022/03/26 11:09:00;;;;;;;33.92;21.13;;;;;;;15.20;46.19;103123.09;5050425;28;20028;-53
2022/03/26 11:11:29;;;;;;;31.75;20.25;;;;;;;15.28;46.37;103117.75;5051063;28;20053;-50
2022/03/26 11:14:13;;;;;;;34.10;21.00;;;;;;;15.31;46.30;103118.31;5051334;28;20087;-52
2022/03/26 11:16:56;;;;;;;34.22;21.48;;;;;;;15.32;46.74;103123.59;5051084;28;20033;-54